createdAt,value
2022-10-11T08:34:53.853Z,3.90
2022-10-11T08:35:54.818Z,3.50
2022-10-11T08:36:55.774Z,4.20
2022-10-11T08:37:56.738Z,5.10
2022-10-11T08:38:57.723Z,5.70
2022-10-11T08:39:58.694Z,5.40
2022-10-11T08:40:59.669Z,4.80
2022-10-11T08:42:00.615Z,5.10
2022-10-11T08:43:01.575Z,6.30
2022-10-11T08:44:02.571Z,5.60
2022-10-11T08:45:10.918Z,6.40
2022-10-11T08:46:05.709Z,6.10
2022-10-11T08:47:05.295Z,5.60
2022-10-11T08:48:06.271Z,5.70
2022-10-11T08:49:07.262Z,5.90
2022-10-11T08:50:07.812Z,5.50
2022-10-11T08:51:08.234Z,5.90
2022-10-11T08:52:09.208Z,6.10
2022-10-11T08:53:10.154Z,5.30
2022-10-11T08:54:11.143Z,6.20
2022-10-11T08:55:12.149Z,5.90
2022-10-11T08:56:12.728Z,5.90
2022-10-11T08:57:13.152Z,6.30
2022-10-11T08:58:14.211Z,6.00
2022-10-11T08:59:14.622Z,6.10
2022-10-11T09:00:15.563Z,6.20
2022-10-11T09:01:16.530Z,6.20
2022-10-11T09:02:17.548Z,6.10
2022-10-11T09:03:18.414Z,6.30
2022-10-11T09:04:19.366Z,5.80
2022-10-11T09:05:20.302Z,6.20
2022-10-11T09:06:21.217Z,5.90
2022-10-11T09:07:22.196Z,5.60
2022-10-11T09:08:23.163Z,5.20
2022-10-11T09:09:24.108Z,5.00
2022-10-11T09:10:25.065Z,5.40
2022-10-11T09:11:25.996Z,4.90
2022-10-11T09:12:30.987Z,4.90
2022-10-11T09:13:28.748Z,5.10
2022-10-11T09:14:28.651Z,4.80
2022-10-11T09:15:29.609Z,5.30
2022-10-11T09:16:30.537Z,5.50
2022-10-11T09:17:31.480Z,5.60
2022-10-11T09:18:32.401Z,5.00
2022-10-11T09:19:33.330Z,4.90
2022-10-11T09:20:34.260Z,4.90
2022-10-11T09:21:35.182Z,5.20
2022-10-11T09:22:36.100Z,4.70
2022-10-11T09:23:37.028Z,4.70
2022-10-11T09:24:37.958Z,4.70
2022-10-11T09:25:38.946Z,5.60
2022-10-11T09:26:39.855Z,5.20
2022-10-11T09:28:01.706Z,4.70
2022-10-11T09:28:42.662Z,5.00
2022-10-11T09:29:42.135Z,4.60
2022-10-11T09:30:43.081Z,4.90
2022-10-11T09:31:44.074Z,4.40
2022-10-11T09:32:44.942Z,4.30
2022-10-11T09:33:45.911Z,4.20
2022-10-11T09:34:46.879Z,4.70
2022-10-11T09:35:47.923Z,4.80
2022-10-11T09:36:48.307Z,4.30
2022-10-11T09:37:49.230Z,3.70
2022-10-11T09:38:50.182Z,4.00
2022-10-11T09:39:51.076Z,3.60
2022-10-11T09:40:52.075Z,3.80
2022-10-11T09:41:53.048Z,3.60
2022-10-11T09:42:53.952Z,3.30
2022-10-11T09:43:54.911Z,3.50
2022-10-11T09:44:55.821Z,3.60
2022-10-11T09:45:56.471Z,3.60
2022-10-11T09:46:57.403Z,2.60
2022-10-11T09:47:58.319Z,3.10
2022-10-11T09:48:59.255Z,2.50
2022-10-11T09:50:00.190Z,2.30
2022-10-11T09:51:01.153Z,2.40
2022-10-11T09:52:02.086Z,2.30
2022-10-11T09:53:03.021Z,2.80
2022-10-11T09:54:03.974Z,2.20
2022-10-11T09:55:04.895Z,2.50
2022-10-11T09:56:06.083Z,2.60
2022-10-11T09:57:06.675Z,2.40
2022-10-11T09:58:07.609Z,2.40
2022-10-11T09:59:08.612Z,2.30
2022-10-11T10:00:09.462Z,4.30
2022-10-11T10:01:10.682Z,4.30
2022-10-11T10:02:13.132Z,2.70
2022-10-11T10:03:12.644Z,2.10
2022-10-11T10:04:12.580Z,1.90
2022-10-11T10:05:13.523Z,2.00
2022-10-11T10:06:14.499Z,1.40
2022-10-11T10:07:15.439Z,3.80
2022-10-11T10:08:16.333Z,1.90
2022-10-11T10:09:17.260Z,1.90
2022-10-11T10:10:18.207Z,1.60
2022-10-11T10:11:19.122Z,1.70
2022-10-11T10:12:20.060Z,2.10
2022-10-11T10:13:20.969Z,1.50
2022-10-11T10:14:21.925Z,1.50
2022-10-11T10:15:22.875Z,1.80
2022-10-11T10:16:23.831Z,1.70
2022-10-11T10:17:24.780Z,1.70
2022-10-11T10:18:25.723Z,1.60
2022-10-11T10:19:26.645Z,1.60
2022-10-11T10:20:27.596Z,1.40
2022-10-11T10:21:28.535Z,1.60
2022-10-11T10:22:29.489Z,1.90
2022-10-11T10:23:30.434Z,1.50
2022-10-11T10:24:31.334Z,1.70
2022-10-11T10:25:32.281Z,1.40
2022-10-11T10:26:33.215Z,1.50
2022-10-11T10:27:34.154Z,1.70
2022-10-11T10:28:35.182Z,1.50
2022-10-11T10:29:35.622Z,2.70
2022-10-11T10:30:36.558Z,1.20
2022-10-11T10:31:55.269Z,1.20
2022-10-11T10:32:39.270Z,1.50
2022-10-11T10:33:39.218Z,1.60
2022-10-11T10:34:40.180Z,1.80
2022-10-11T10:35:41.084Z,2.70
2022-10-11T10:36:42.020Z,2.60
2022-10-11T10:37:42.957Z,1.90
2022-10-11T10:38:46.499Z,1.90
2022-10-11T10:39:44.531Z,1.70
2022-10-11T10:40:45.465Z,2.20
2022-10-11T10:41:46.437Z,1.80
2022-10-11T10:42:47.360Z,2.10
2022-10-11T10:43:48.299Z,1.70
2022-10-11T10:44:49.233Z,1.70
2022-10-11T10:45:50.152Z,1.80
2022-10-11T10:46:51.104Z,2.10
2022-10-11T10:47:52.043Z,2.00
2022-10-11T10:49:55.324Z,2.60
2022-10-11T10:50:54.317Z,2.20
2022-10-11T10:51:55.259Z,1.90
2022-10-11T10:52:56.192Z,2.10
2022-10-11T10:53:57.126Z,2.00
2022-10-11T10:54:58.049Z,2.00
2022-10-11T10:55:58.981Z,2.30
2022-10-11T10:56:59.910Z,2.50
2022-10-11T10:58:00.839Z,2.30
2022-10-11T10:59:01.765Z,2.40
2022-10-11T11:00:02.684Z,2.90
2022-10-11T11:01:03.639Z,2.10
2022-10-11T11:02:15.994Z,2.00
2022-10-11T11:03:06.376Z,3.00
2022-10-11T11:04:06.302Z,2.50
2022-10-11T11:05:07.232Z,2.40
2022-10-11T11:06:08.576Z,2.30
2022-10-11T11:07:08.898Z,2.80
2022-10-11T11:08:09.790Z,2.50
2022-10-11T11:09:10.760Z,2.90
2022-10-11T11:10:11.700Z,2.70
2022-10-11T11:11:12.670Z,3.10
2022-10-11T11:12:13.574Z,2.70
2022-10-11T11:13:14.487Z,2.70
2022-10-11T11:14:15.439Z,2.70
2022-10-11T11:15:16.346Z,3.20
2022-10-11T11:16:17.253Z,3.40
2022-10-11T11:17:18.214Z,3.20
2022-10-11T11:18:19.156Z,2.70
2022-10-11T11:19:20.073Z,3.00
2022-10-11T11:20:21.009Z,2.20
2022-10-11T11:21:21.964Z,1.40
2022-10-11T11:22:22.922Z,1.60
2022-10-11T11:23:23.802Z,1.60
2022-10-11T11:24:24.724Z,1.70
2022-10-11T11:25:26.610Z,1.60
2022-10-11T11:26:26.530Z,1.50
2022-10-11T11:27:27.466Z,1.40
2022-10-11T11:28:28.468Z,1.80
2022-10-11T11:29:29.375Z,1.80
2022-10-11T11:30:30.347Z,2.40
2022-10-11T11:31:31.352Z,2.20
2022-10-11T11:32:31.899Z,2.80
2022-10-11T11:33:32.420Z,3.70
2022-10-11T11:34:34.355Z,6.90
2022-10-11T11:35:34.385Z,4.90
2022-10-11T11:36:34.847Z,3.70
2022-10-11T11:37:36.590Z,2.10
2022-10-11T11:38:36.503Z,2.40
2022-10-11T11:39:37.437Z,2.20
2022-10-11T11:40:38.458Z,2.50
2022-10-11T11:41:38.916Z,2.60
2022-10-11T11:42:39.834Z,2.30
2022-10-11T11:43:41.873Z,3.70
2022-10-11T11:44:41.313Z,3.10
2022-10-11T11:45:42.238Z,2.30
2022-10-11T11:46:43.175Z,2.20
2022-10-11T11:47:45.249Z,2.20
2022-10-11T11:48:44.634Z,3.10
2022-10-11T11:49:45.569Z,2.80
2022-10-11T11:50:46.524Z,1.90
2022-10-11T11:51:47.465Z,2.00
2022-10-11T11:52:49.486Z,1.80
2022-10-11T11:53:48.885Z,2.10
2022-10-11T11:54:49.897Z,1.60
2022-10-11T11:55:50.860Z,1.60
2022-10-11T11:56:51.276Z,1.60
2022-10-11T11:57:52.219Z,1.50
2022-10-11T11:58:54.242Z,1.40
2022-10-11T11:59:53.669Z,1.40
2022-10-11T12:00:54.663Z,1.50
2022-10-11T12:01:55.629Z,1.80
2022-10-11T12:02:56.532Z,1.80
2022-10-11T12:03:57.846Z,1.80
2022-10-11T12:04:58.257Z,1.90
2022-10-11T12:05:59.177Z,2.00
2022-10-11T12:07:15.498Z,1.90
2022-10-11T12:08:01.987Z,2.30
2022-10-11T12:09:02.628Z,1.90
2022-10-11T12:10:02.572Z,2.10
2022-10-11T12:11:03.739Z,2.00
2022-10-11T12:12:04.302Z,2.10
2022-10-11T12:13:05.258Z,2.40
2022-10-11T12:14:06.198Z,2.30
2022-10-11T12:15:07.130Z,2.50
2022-10-11T12:16:08.085Z,2.70
2022-10-11T12:17:08.988Z,2.50
2022-10-11T12:18:10.334Z,2.10
2022-10-11T12:19:10.760Z,2.00
2022-10-11T12:20:11.690Z,2.30
2022-10-11T12:21:12.625Z,2.10
2022-10-11T12:22:14.633Z,1.80
2022-10-11T12:23:19.104Z,1.80
2022-10-11T12:24:16.389Z,1.40
2022-10-11T12:25:18.607Z,1.30
2022-10-11T12:26:16.760Z,1.90
2022-10-11T12:27:17.776Z,2.00
2022-10-11T12:28:18.322Z,1.90
2022-10-11T12:29:18.751Z,1.90
2022-10-11T12:30:20.600Z,1.80
2022-10-11T12:31:20.552Z,1.60
2022-10-11T12:32:22.093Z,1.80
2022-10-11T12:33:22.042Z,1.60
2022-10-11T12:34:22.707Z,1.40
2022-10-11T12:35:23.618Z,1.30
2022-10-11T12:36:24.548Z,1.40
2022-10-11T12:37:25.495Z,1.20
2022-10-11T12:38:26.413Z,1.30
2022-10-11T12:39:27.363Z,1.30
2022-10-11T12:40:28.384Z,1.20
2022-10-11T12:41:29.604Z,1.40
2022-10-11T12:42:29.541Z,1.50
2022-10-11T12:43:30.507Z,1.40
2022-10-11T12:44:32.146Z,2.10
2022-10-11T12:45:32.038Z,2.10
2022-10-11T12:46:33.041Z,2.10
2022-10-11T12:47:34.080Z,1.40
2022-10-11T12:48:39.914Z,1.30
2022-10-11T12:49:36.977Z,1.70
2022-10-11T12:50:35.820Z,1.50
2022-10-11T12:51:36.924Z,1.40
2022-10-11T12:52:37.338Z,1.70
2022-10-11T12:53:38.388Z,1.40
2022-10-11T12:54:38.747Z,1.60
2022-10-11T12:55:39.657Z,1.70
2022-10-11T12:56:40.590Z,1.70
2022-10-11T12:57:46.129Z,1.60
2022-10-11T12:58:43.400Z,1.80
2022-10-11T12:59:42.822Z,1.40
2022-10-11T13:00:43.768Z,1.40
2022-10-11T13:01:44.753Z,1.70
2022-10-11T13:02:45.726Z,2.00
2022-10-11T13:03:46.204Z,2.00
2022-10-11T13:04:47.235Z,2.20
2022-10-11T13:05:53.498Z,1.80
2022-10-11T13:06:49.912Z,1.90
2022-10-11T13:07:49.829Z,1.90
2022-10-11T13:08:50.813Z,2.10
2022-10-11T13:09:51.844Z,1.80
2022-10-11T13:10:53.028Z,1.90
2022-10-11T13:11:53.755Z,2.30
2022-10-11T13:12:54.353Z,1.70
2022-10-11T13:13:54.740Z,2.00
2022-10-11T13:14:56.076Z,1.80
2022-10-11T13:15:56.458Z,2.60
2022-10-11T13:16:57.379Z,3.20
2022-10-11T13:17:58.328Z,2.40
2022-10-11T13:18:59.346Z,2.20
2022-10-11T13:20:00.289Z,2.00
2022-10-11T13:21:01.330Z,2.00
2022-10-11T13:22:01.698Z,1.60
2022-10-11T13:23:02.646Z,1.80
2022-10-11T13:24:03.597Z,1.70
2022-10-11T13:25:04.520Z,1.80
2022-10-11T13:26:05.441Z,2.10
2022-10-11T13:27:06.379Z,2.10
2022-10-11T13:28:07.343Z,2.10
2022-10-11T13:29:08.228Z,2.00
2022-10-11T13:30:09.245Z,2.50
2022-10-11T13:31:10.081Z,2.70
2022-10-11T13:32:11.021Z,2.50
2022-10-11T13:33:11.944Z,2.50
2022-10-11T13:34:12.897Z,2.00
2022-10-11T13:35:13.845Z,2.10
2022-10-11T13:36:14.858Z,1.90
2022-10-11T13:37:15.730Z,1.80
2022-10-11T13:38:16.658Z,1.80
2022-10-11T13:39:18.719Z,1.80
2022-10-11T13:40:18.176Z,1.90
2022-10-11T13:41:19.057Z,2.70
2022-10-11T13:42:19.999Z,1.80
2022-10-11T13:43:20.920Z,1.80
2022-10-11T13:44:21.845Z,2.00
2022-10-11T13:45:22.843Z,2.30
2022-10-11T13:46:23.775Z,2.10
2022-10-11T13:47:24.682Z,1.60
2022-10-11T13:48:30.745Z,1.70
2022-10-11T13:49:27.607Z,1.50
2022-10-11T13:50:28.153Z,1.70
2022-10-11T13:51:27.524Z,1.60
2022-10-11T13:52:28.476Z,1.60
2022-10-11T13:53:29.412Z,1.80
2022-10-11T13:54:30.444Z,1.90
2022-10-11T13:55:30.852Z,1.60
2022-10-11T13:56:31.759Z,1.70
2022-10-11T13:57:32.668Z,1.80
2022-10-11T13:58:33.641Z,1.80
2022-10-11T13:59:34.562Z,2.00
2022-10-11T14:00:35.487Z,2.00
2022-10-11T14:01:36.483Z,1.80
2022-10-11T14:02:37.332Z,2.20
2022-10-11T14:03:38.254Z,2.20
2022-10-11T14:04:39.245Z,2.10
2022-10-11T14:05:41.139Z,2.80
